createdAt,value
2022-10-23T00:00:45.777Z,100234.88
2022-10-23T00:01:50.808Z,100229.63
2022-10-23T00:02:53.455Z,100226.06
2022-10-23T00:04:05.124Z,100219.84
2022-10-23T00:05:06.972Z,100229.50
2022-10-23T00:06:11.681Z,100227.78
2022-10-23T00:07:13.510Z,100233.16
2022-10-23T00:08:17.861Z,100230.81
2022-10-23T00:09:27.614Z,100233.41
2022-10-23T00:10:29.420Z,100243.16
2022-10-23T00:11:34.040Z,100236.31
2022-10-23T00:12:36.189Z,100237.91
2022-10-23T00:13:40.831Z,100237.66
2022-10-23T00:14:42.577Z,100238.38
2022-10-23T00:15:46.899Z,100232.28
2022-10-23T00:16:48.745Z,100242.75
2022-10-23T00:17:53.349Z,100244.47
2022-10-23T00:18:55.111Z,100231.03
2022-10-23T00:19:59.462Z,100239.88
2022-10-23T00:21:01.324Z,100247.91
2022-10-23T00:22:05.678Z,100241.69
2022-10-23T00:23:07.481Z,100246.94
2022-10-23T00:24:11.877Z,100233.66
2022-10-23T00:25:13.720Z,100246.81
2022-10-23T00:26:18.469Z,100248.66
2022-10-23T00:27:20.249Z,100247.69
2022-10-23T00:28:24.593Z,100246.81
2022-10-23T00:29:28.204Z,100254.75
2022-10-23T00:30:32.522Z,100247.69
2022-10-23T00:31:34.274Z,100254.75
2022-10-23T00:32:38.651Z,100259.03
2022-10-23T00:33:40.740Z,100255.50
2022-10-23T00:34:45.086Z,100260.00
2022-10-23T00:35:47.317Z,100256.47
2022-10-23T00:36:51.686Z,100254.63
2022-10-23T00:37:53.457Z,100263.56
2022-10-23T00:38:57.872Z,100264.41
2022-10-23T00:39:59.726Z,100262.69
2022-10-23T00:41:04.059Z,100264.66
2022-10-23T00:42:05.822Z,100267.22
2022-10-23T00:43:10.278Z,100265.50
2022-10-23T00:44:34.585Z,100269.03
2022-10-23T00:45:39.022Z,100265.50
2022-10-23T00:46:40.884Z,100267.22
2022-10-23T00:47:45.194Z,100258.41
2022-10-23T00:48:46.994Z,100272.81
2022-10-23T00:49:51.343Z,100269.16
2022-10-23T00:50:53.077Z,100264.75
2022-10-23T00:52:00.275Z,100265.50
2022-10-23T00:53:02.958Z,100269.16
2022-10-23T00:54:24.347Z,100272.56
2022-10-23T00:55:26.774Z,100266.22
2022-10-23T00:56:31.106Z,100270.00
2022-10-23T00:57:32.952Z,100271.59
2022-10-23T00:58:37.305Z,100276.00
2022-10-23T00:59:39.347Z,100277.94
2022-10-23T01:00:45.697Z,100278.69
2022-10-23T01:01:48.443Z,100276.97
2022-10-23T01:02:53.018Z,100275.72
2022-10-23T01:03:54.789Z,100279.38
2022-10-23T01:04:59.591Z,100287.31
2022-10-23T01:06:07.562Z,100287.19
2022-10-23T01:07:18.118Z,100276.00
2022-10-23T01:08:23.769Z,100289.28
2022-10-23T01:09:35.439Z,100283.66
2022-10-23T01:10:45.345Z,100283.66
2022-10-23T01:11:54.403Z,100286.47
2022-10-23T01:13:15.180Z,100295.25
2022-10-23T01:14:26.330Z,100293.66
2022-10-23T01:15:47.947Z,100294.53
2022-10-23T01:17:01.190Z,100288.19
2022-10-23T01:18:09.234Z,100290.63
2022-10-23T01:19:13.956Z,100285.25
2022-10-23T01:20:18.557Z,100290.50
2022-10-23T01:21:20.357Z,100290.50
2022-10-23T01:22:30.502Z,100282.31
2022-10-23T01:23:32.295Z,100298.69
2022-10-23T01:24:39.960Z,100295.88
2022-10-23T01:25:44.534Z,100293.81
2022-10-23T01:26:53.322Z,100297.19
2022-10-23T01:28:05.479Z,100294.78
2022-10-23T01:29:09.774Z,100296.59
2022-10-23T01:30:12.613Z,100294.50
2022-10-23T01:31:21.866Z,100296.22
2022-10-23T01:32:38.931Z,100282.91
2022-10-23T01:33:48.135Z,100289.88
2022-10-23T01:35:03.686Z,100291.13
2022-10-23T01:36:09.150Z,100297.06
2022-10-23T01:37:11.736Z,100283.75
2022-10-23T01:38:23.761Z,100282.53
2022-10-23T01:39:28.089Z,100286.94
2022-10-23T01:40:47.588Z,100286.19
2022-10-23T01:41:53.612Z,100294.25
2022-10-23T01:43:05.461Z,100302.06
2022-10-23T01:44:17.604Z,100295.00
2022-10-23T01:45:24.448Z,100295.72
2022-10-23T01:46:26.538Z,100294.88
2022-10-23T01:47:31.392Z,100292.91
2022-10-23T01:48:40.057Z,100295.50
2022-10-23T01:49:44.808Z,100300.25
2022-10-23T01:50:46.573Z,100301.09
2022-10-23T01:51:52.514Z,100302.81
2022-10-23T01:52:54.357Z,100303.66
2022-10-23T01:53:59.168Z,100298.28
2022-10-23T01:55:01.408Z,100301.84
2022-10-23T01:56:09.521Z,100300.00
2022-10-23T01:57:11.798Z,100302.06
2022-10-23T01:58:16.545Z,100308.41
2022-10-23T01:59:20.245Z,100307.44
2022-10-23T02:00:24.725Z,100306.47
2022-10-23T02:01:26.698Z,100307.44
2022-10-23T02:02:31.316Z,100303.06
2022-10-23T02:03:34.077Z,100301.34
2022-10-23T02:04:41.706Z,100306.47
2022-10-23T02:05:43.889Z,100301.09
2022-10-23T02:06:48.440Z,100312.69
2022-10-23T02:07:50.431Z,100305.25
2022-10-23T02:08:54.755Z,100307.81
2022-10-23T02:09:56.605Z,100312.09
2022-10-23T02:11:11.668Z,100309.53
2022-10-23T02:12:14.468Z,100308.41
2022-10-23T02:13:21.453Z,100316.59
2022-10-23T02:14:26.189Z,100315.50
2022-10-23T02:15:40.853Z,100311.00
2022-10-23T02:16:43.310Z,100310.13
2022-10-23T02:17:48.250Z,100312.69
2022-10-23T02:18:59.732Z,100320.63
2022-10-23T02:20:13.022Z,100322.34
2022-10-23T02:21:15.953Z,100318.66
2022-10-23T02:22:26.015Z,100326.00
2022-10-23T02:23:27.810Z,100322.34
2022-10-23T02:24:34.757Z,100321.63
2022-10-23T02:25:40.044Z,100327.97
2022-10-23T02:27:04.940Z,100324.78
2022-10-23T02:28:07.881Z,100325.50
2022-10-23T02:29:21.694Z,100328.19
2022-10-23T02:30:23.670Z,100328.19
2022-10-23T02:31:43.768Z,100324.53
2022-10-23T02:32:46.897Z,100329.91
2022-10-23T02:33:51.281Z,100332.59
2022-10-23T02:34:55.666Z,100333.34
2022-10-23T02:35:57.646Z,100333.44
2022-10-23T02:37:02.085Z,100337.97
2022-10-23T02:38:04.250Z,100341.50
2022-10-23T02:39:11.146Z,100347.75
2022-10-23T02:40:13.002Z,100344.94
2022-10-23T02:41:26.845Z,100339.56
2022-10-23T02:42:33.923Z,100333.09
2022-10-23T02:43:40.420Z,100342.13
2022-10-23T02:45:03.195Z,100334.56
2022-10-23T02:46:15.018Z,100338.47
2022-10-23T02:47:22.367Z,100338.47
2022-10-23T02:48:26.582Z,100336.75
2022-10-23T02:49:38.513Z,100344.69
2022-10-23T02:50:50.555Z,100341.00
2022-10-23T02:51:55.524Z,100338.47
2022-10-23T02:53:15.524Z,100342.97
2022-10-23T02:54:44.081Z,100342.25
2022-10-23T02:56:17.900Z,100349.44
2022-10-23T02:57:19.750Z,100352.13
2022-10-23T02:58:31.405Z,100355.78
2022-10-23T02:59:36.558Z,100347.75
2022-10-23T03:00:41.891Z,100346.75
2022-10-23T03:01:52.478Z,100341.41
2022-10-23T03:03:02.858Z,100340.41
2022-10-23T03:04:08.635Z,100352.00
2022-10-23T03:05:14.254Z,100351.03
2022-10-23T03:06:16.512Z,100346.66
2022-10-23T03:07:21.357Z,100347.50
2022-10-23T03:08:25.729Z,100340.41
2022-10-23T03:09:27.509Z,100347.50
2022-10-23T03:10:31.883Z,100338.47
2022-10-23T03:11:33.644Z,100346.25
2022-10-23T03:12:37.979Z,100344.69
2022-10-23T03:13:43.315Z,100342.97
2022-10-23T03:14:45.534Z,100341.28
2022-10-23T03:15:50.008Z,100347.75
2022-10-23T03:16:51.769Z,100351.88
2022-10-23T03:17:56.124Z,100348.22
2022-10-23T03:18:58.009Z,100345.69
2022-10-23T03:20:02.607Z,100348.50
2022-10-23T03:21:04.364Z,100356.91
2022-10-23T03:22:12.059Z,100347.25
2022-10-23T03:23:14.132Z,100353.47
2022-10-23T03:24:18.460Z,100352.63
2022-10-23T03:25:22.804Z,100356.28
2022-10-23T03:26:24.550Z,100353.72
2022-10-23T03:28:54.258Z,100346.91
2022-10-23T03:29:57.793Z,100363.88
2022-10-23T03:31:02.263Z,100358.50
2022-10-23T03:32:04.380Z,100356.66
2022-10-23T03:33:08.790Z,100354.84
2022-10-23T03:34:11.607Z,100358.50
2022-10-23T03:35:18.043Z,100357.66
2022-10-23T03:36:22.679Z,100347.75
2022-10-23T03:37:25.001Z,100355.81
2022-10-23T03:38:29.377Z,100352.28
2022-10-23T03:39:31.836Z,100350.56
2022-10-23T03:40:36.174Z,100354.09
2022-10-23T03:41:37.930Z,100354.22
2022-10-23T03:42:42.331Z,100360.44
2022-10-23T03:43:46.872Z,100355.06
2022-10-23T03:44:51.278Z,100354.34
2022-10-23T03:45:54.882Z,100354.66
2022-10-23T03:47:01.242Z,100357.72
2022-10-23T03:48:02.978Z,100365.03
2022-10-23T03:49:09.647Z,100368.94
2022-10-23T03:50:11.923Z,100365.78
2022-10-23T03:51:16.317Z,100370.75
2022-10-23T03:52:18.128Z,100368.44
2022-10-23T03:53:22.591Z,100360.13
2022-10-23T03:54:25.138Z,100368.56
2022-10-23T03:55:29.768Z,100368.91
2022-10-23T03:56:31.573Z,100368.16
2022-10-23T03:57:37.136Z,100375.47
2022-10-23T03:58:39.164Z,100379.16
2022-10-23T03:59:44.527Z,100375.47
2022-10-23T04:00:46.416Z,100378.88
2022-10-23T04:01:51.093Z,100379.63
2022-10-23T04:02:53.000Z,100384.03
2022-10-23T04:03:57.513Z,100383.16
2022-10-23T04:05:01.022Z,100387.66
2022-10-23T04:06:07.070Z,100380.38
2022-10-23T04:07:08.851Z,100388.53
2022-10-23T04:08:17.639Z,100386.81
2022-10-23T04:09:26.528Z,100385.97
2022-10-23T04:10:28.381Z,100388.75
2022-10-23T04:11:33.274Z,100374.38
2022-10-23T04:12:35.178Z,100384.50
2022-10-23T04:13:39.621Z,100382.16
2022-10-23T04:14:44.047Z,100388.13
2022-10-23T04:15:49.760Z,100383.97
2022-10-23T04:16:54.510Z,100385.53
2022-10-23T04:17:56.335Z,100386.84
2022-10-23T04:19:00.701Z,100386.03
2022-10-23T04:20:04.271Z,100379.19
2022-10-23T04:21:08.737Z,100385.66
2022-10-23T04:22:13.069Z,100386.22
2022-10-23T04:23:15.063Z,100392.03
2022-10-23T04:24:19.742Z,100384.22
2022-10-23T04:25:24.219Z,100388.09
2022-10-23T04:26:25.981Z,100384.03
2022-10-23T04:27:30.457Z,100378.25
2022-10-23T04:28:32.200Z,100381.19
2022-10-23T04:29:37.111Z,100382.25
2022-10-23T04:30:38.907Z,100375.94
2022-10-23T04:31:43.674Z,100376.53
2022-10-23T04:32:45.430Z,100384.56
2022-10-23T04:33:49.790Z,100367.78
2022-10-23T04:35:06.977Z,100375.03
2022-10-23T04:36:09.176Z,100372.00
2022-10-23T04:37:13.494Z,100373.50
2022-10-23T04:38:15.248Z,100380.34
2022-10-23T04:39:19.680Z,100374.63
2022-10-23T04:40:22.024Z,100365.53
2022-10-23T04:41:27.762Z,100367.00
2022-10-23T04:42:32.194Z,100363.09
2022-10-23T04:43:36.391Z,100367.28
2022-10-23T04:44:41.321Z,100366.09
2022-10-23T04:45:43.227Z,100363.28
2022-10-23T04:46:47.662Z,100371.94
2022-10-23T04:47:50.071Z,100367.31
2022-10-23T04:48:54.461Z,100365.38
2022-10-23T04:50:02.401Z,100374.28
2022-10-23T04:51:25.197Z,100375.88
2022-10-23T04:52:31.648Z,100380.16
2022-10-23T04:53:44.756Z,100379.06
2022-10-23T04:54:56.725Z,100382.47
2022-10-23T04:56:19.067Z,100380.53
2022-10-23T04:57:24.825Z,100384.06
2022-10-23T04:58:37.130Z,100382.03
2022-10-23T04:59:38.932Z,100378.59
2022-10-23T05:00:43.321Z,100383.75
2022-10-23T05:01:45.168Z,100386.53
2022-10-23T05:02:51.115Z,100389.97
2022-10-23T05:03:54.103Z,100393.50
2022-10-23T05:04:58.463Z,100397.25
2022-10-23T05:06:27.411Z,100392.00
2022-10-23T05:07:55.168Z,100407.88
2022-10-23T05:09:19.747Z,100398.00
2022-10-23T05:10:41.631Z,100397.84
2022-10-23T05:11:52.329Z,100395.19
2022-10-23T05:12:54.577Z,100408.59
2022-10-23T05:13:58.938Z,100406.91
2022-10-23T05:15:02.414Z,100408.59
2022-10-23T05:16:06.831Z,100414.09
2022-10-23T05:17:27.520Z,100417.63
2022-10-23T05:18:35.882Z,100416.78
2022-10-23T05:19:42.058Z,100419.56
2022-10-23T05:20:46.370Z,100408.84
2022-10-23T05:21:48.620Z,100418.94
2022-10-23T05:22:53.109Z,100426.88
2022-10-23T05:25:33.071Z,100422.59
2022-10-23T05:26:45.011Z,100431.38
2022-10-23T05:27:49.385Z,100430.03
2022-10-23T05:28:51.779Z,100420.66
2022-10-23T05:29:56.280Z,100423.44
2022-10-23T05:31:04.639Z,100427.09
2022-10-23T05:32:09.606Z,100430.53
2022-10-23T05:33:12.297Z,100427.72
2022-10-23T05:34:20.372Z,100428.81
2022-10-23T05:35:22.924Z,100427.97
2022-10-23T05:36:28.461Z,100439.31
2022-10-23T05:37:32.190Z,100441.25
2022-10-23T05:38:50.454Z,100442.75
2022-10-23T05:39:53.870Z,100451.75
2022-10-23T05:40:58.697Z,100438.47
2022-10-23T05:42:00.555Z,100429.03
2022-10-23T05:43:04.913Z,100441.13
2022-10-23T05:44:36.848Z,100435.25
2022-10-23T05:46:00.625Z,100450.50
2022-10-23T05:47:20.900Z,100453.44
2022-10-23T05:48:52.647Z,100447.53
2022-10-23T05:50:00.200Z,100453.34
2022-10-23T05:51:33.909Z,100459.38
2022-10-23T05:52:54.403Z,100455.34
2022-10-23T05:54:24.849Z,100454.06
2022-10-23T05:55:52.852Z,100459.16
2022-10-23T05:57:15.009Z,100451.44
2022-10-23T05:58:26.274Z,100456.03
2022-10-23T05:59:50.611Z,100460.00
2022-10-23T06:01:18.622Z,100449.63
2022-10-23T06:02:37.319Z,100458.84
2022-10-23T06:03:49.600Z,100458.00
2022-10-23T06:04:51.898Z,100460.91
2022-10-23T06:06:16.221Z,100464.66
2022-10-23T06:07:25.491Z,100453.19
2022-10-23T06:08:31.088Z,100462.06
2022-10-23T06:09:32.962Z,100459.50
2022-10-23T06:10:37.340Z,100464.00
2022-10-23T06:11:42.261Z,100456.09
2022-10-23T06:12:53.661Z,100462.41
2022-10-23T06:15:20.749Z,100465.84
2022-10-23T06:16:48.186Z,100471.22
2022-10-23T06:17:50.107Z,100460.34
2022-10-23T06:18:55.036Z,100462.06
2022-10-23T06:20:00.899Z,100458.44
2022-10-23T06:21:05.262Z,100456.50
2022-10-23T06:22:07.137Z,100455.44
2022-10-23T06:23:23.166Z,100452.75
2022-10-23T06:24:53.575Z,100459.59
2022-10-23T06:25:59.876Z,100454.97
2022-10-23T06:27:12.450Z,100463.56
2022-10-23T06:28:19.853Z,100465.25
2022-10-23T06:29:25.159Z,100464.09
2022-10-23T06:30:27.108Z,100466.34
2022-10-23T06:31:31.592Z,100470.63
2022-10-23T06:32:33.338Z,100471.00
2022-10-23T06:33:47.306Z,100461.56
2022-10-23T06:34:49.250Z,100468.19
2022-10-23T06:35:53.590Z,100469.44
2022-10-23T06:36:58.098Z,100476.06
2022-10-23T06:38:10.672Z,100480.72
2022-10-23T06:39:21.350Z,100480.78
2022-10-23T06:40:47.121Z,100479.75
2022-10-23T06:41:56.339Z,100486.75
2022-10-23T06:43:18.988Z,100493.13
2022-10-23T06:44:37.565Z,100487.16
2022-10-23T06:45:44.062Z,100493.16
2022-10-23T06:46:51.723Z,100502.00
2022-10-23T06:48:11.735Z,100512.88
2022-10-23T06:49:35.077Z,100509.63
2022-10-23T06:50:38.052Z,100521.81
2022-10-23T06:51:47.988Z,100526.72
2022-10-23T06:52:51.457Z,100527.38
2022-10-23T06:53:55.862Z,100517.94
2022-10-23T06:55:29.812Z,100523.56
2022-10-23T06:56:31.710Z,100533.72
2022-10-23T06:57:37.381Z,100529.69
2022-10-23T06:58:40.564Z,100534.81
2022-10-23T06:59:51.985Z,100539.72
2022-10-23T07:00:54.213Z,100546.31
2022-10-23T07:01:58.608Z,100540.69
2022-10-23T07:03:00.562Z,100541.91
2022-10-23T07:04:04.962Z,100555.09
2022-10-23T07:05:08.826Z,100547.50
2022-10-23T07:06:17.506Z,100553.16
2022-10-23T07:07:19.493Z,100555.22
2022-10-23T07:08:26.072Z,100562.72
2022-10-23T07:09:33.266Z,100562.19
2022-10-23T07:10:52.240Z,100558.75
2022-10-23T07:11:57.422Z,100576.97
2022-10-23T07:13:10.746Z,100565.22
2022-10-23T07:14:26.866Z,100573.63
2022-10-23T07:15:35.411Z,100574.13
2022-10-23T07:16:40.883Z,100580.94
2022-10-23T07:17:43.982Z,100581.69
2022-10-23T07:18:48.802Z,100582.41
2022-10-23T07:20:14.036Z,100590.25
2022-10-23T07:21:19.079Z,100576.19
2022-10-23T07:22:21.117Z,100594.66
2022-10-23T07:23:31.941Z,100589.72
2022-10-23T07:24:37.237Z,100588.63
2022-10-23T07:25:47.968Z,100592.50
2022-10-23T07:26:55.971Z,100598.13
2022-10-23T07:28:01.990Z,100581.56
2022-10-23T07:29:05.629Z,100586.88
2022-10-23T07:30:11.961Z,100593.25
2022-10-23T07:31:25.662Z,100593.69
2022-10-23T07:32:51.082Z,100588.94
2022-10-23T07:34:14.161Z,100589.25
2022-10-23T07:35:17.631Z,100596.59
2022-10-23T07:36:36.055Z,100600.88
2022-10-23T07:37:37.948Z,100594.38
2022-10-23T07:38:42.813Z,100591.19
2022-10-23T07:39:44.678Z,100592.78
2022-10-23T07:40:49.239Z,100593.84
2022-10-23T07:41:53.106Z,100594.63
2022-10-23T07:42:57.553Z,100589.28
2022-10-23T07:44:00.142Z,100603.28
2022-10-23T07:45:04.925Z,100601.34
2022-10-23T07:46:10.224Z,100601.09
2022-10-23T07:47:14.349Z,100600.31
2022-10-23T07:48:23.951Z,100606.44
2022-10-23T07:49:34.982Z,100609.59
2022-10-23T07:50:40.611Z,100602.63
2022-10-23T07:51:50.429Z,100614.31
2022-10-23T07:52:53.442Z,100610.06
2022-10-23T07:54:00.772Z,100607.38
2022-10-23T07:55:23.510Z,100614.09
2022-10-23T07:56:32.738Z,100625.31
2022-10-23T07:58:12.464Z,100618.94
2022-10-23T07:59:19.582Z,100624.34
2022-10-23T08:00:29.818Z,100626.78
2022-10-23T08:01:47.254Z,100622.94
2022-10-23T08:02:49.830Z,100616.66
2022-10-23T08:03:54.298Z,100620.38
2022-10-23T08:04:57.145Z,100625.78
2022-10-23T08:06:06.789Z,100618.66
2022-10-23T08:07:08.975Z,100629.75
2022-10-23T08:08:19.861Z,100622.91
2022-10-23T08:09:24.374Z,100630.78
2022-10-23T08:10:29.839Z,100617.25
2022-10-23T08:11:35.776Z,100621.38
2022-10-23T08:12:42.972Z,100635.72
2022-10-23T08:13:45.611Z,100630.19
2022-10-23T08:14:50.249Z,100623.78
2022-10-23T08:15:53.194Z,100627.06
2022-10-23T08:17:15.963Z,100623.19
2022-10-23T08:18:55.896Z,100629.06
2022-10-23T08:19:58.122Z,100628.47
2022-10-23T08:21:06.803Z,100625.91
2022-10-23T08:22:09.419Z,100628.94
2022-10-23T08:23:16.938Z,100639.16
2022-10-23T08:24:21.683Z,100631.75
2022-10-23T08:25:25.087Z,100628.59
2022-10-23T08:26:30.822Z,100635.44
2022-10-23T08:27:32.755Z,100633.59
2022-10-23T08:28:37.201Z,100638.59
2022-10-23T08:29:39.567Z,100634.88
2022-10-23T08:30:44.079Z,100630.88
2022-10-23T08:31:46.547Z,100637.69
2022-10-23T08:33:02.874Z,100632.00
2022-10-23T08:34:04.809Z,100631.72
2022-10-23T08:35:09.748Z,100634.28
2022-10-23T08:36:18.810Z,100635.72
2022-10-23T08:37:23.385Z,100634.00
2022-10-23T08:38:25.302Z,100636.69
2022-10-23T08:39:30.017Z,100644.09
2022-10-23T08:40:44.379Z,100635.13
2022-10-23T08:42:23.727Z,100638.41
2022-10-23T08:43:36.793Z,100629.00
2022-10-23T08:45:07.216Z,100632.56
2022-10-23T08:46:14.993Z,100634.00
2022-10-23T08:47:47.123Z,100631.72
2022-10-23T08:49:32.722Z,100632.69
2022-10-23T08:50:41.871Z,100635.00
2022-10-23T08:51:47.939Z,100640.25
2022-10-23T08:53:09.741Z,100634.84
2022-10-23T08:54:46.450Z,100639.25
2022-10-23T08:55:57.419Z,100637.69
2022-10-23T08:57:03.491Z,100641.25
2022-10-23T08:58:29.543Z,100649.94
2022-10-23T08:59:38.126Z,100643.81
2022-10-23T09:00:42.635Z,100650.56
2022-10-23T09:01:47.146Z,100642.56
2022-10-23T09:02:53.341Z,100635.88
2022-10-23T09:03:55.899Z,100640.13
2022-10-23T09:05:00.600Z,100638.63
2022-10-23T09:06:12.980Z,100642.59
2022-10-23T09:07:17.850Z,100638.03
2022-10-23T09:08:41.010Z,100637.66
2022-10-23T09:09:51.840Z,100636.59
2022-10-23T09:11:05.546Z,100652.50
2022-10-23T09:12:07.390Z,100651.75
2022-10-23T09:13:32.158Z,100646.34
2022-10-23T09:14:34.079Z,100649.72
2022-10-23T09:15:38.776Z,100655.47
2022-10-23T09:16:49.822Z,100660.75
2022-10-23T09:17:58.418Z,100663.97
2022-10-23T09:19:00.332Z,100665.84
2022-10-23T09:20:25.104Z,100660.19
2022-10-23T09:21:27.866Z,100662.28
2022-10-23T09:22:32.450Z,100670.88
2022-10-23T09:23:34.282Z,100662.31
2022-10-23T09:24:38.795Z,100675.06
2022-10-23T09:25:43.783Z,100668.00
2022-10-23T09:26:48.493Z,100669.72
2022-10-23T09:27:56.180Z,100672.31
2022-10-23T09:29:05.670Z,100663.38
2022-10-23T09:30:10.603Z,100668.66
2022-10-23T09:31:13.182Z,100666.25
2022-10-23T09:32:17.649Z,100668.81
2022-10-23T09:33:21.774Z,100664.72
2022-10-23T09:34:30.398Z,100660.44
2022-10-23T09:35:35.107Z,100657.28
2022-10-23T09:36:37.239Z,100654.72
2022-10-23T09:37:48.594Z,100660.53
2022-10-23T09:38:51.545Z,100660.97
2022-10-23T09:40:08.101Z,100663.78
2022-10-23T09:41:32.908Z,100660.50
2022-10-23T09:42:35.491Z,100660.34
2022-10-23T09:43:40.032Z,100667.16
2022-10-23T09:44:49.731Z,100657.88
2022-10-23T09:46:06.260Z,100667.47
2022-10-23T09:47:11.418Z,100668.91
2022-10-23T09:48:20.135Z,100658.94
2022-10-23T09:49:32.201Z,100658.69
2022-10-23T09:50:34.083Z,100673.50
2022-10-23T09:51:41.870Z,100662.69
2022-10-23T09:52:46.303Z,100670.34
2022-10-23T09:53:48.157Z,100663.53
2022-10-23T09:54:59.380Z,100666.09
2022-10-23T09:56:03.110Z,100660.44
2022-10-23T09:57:09.513Z,100656.88
2022-10-23T09:58:21.098Z,100651.19
2022-10-23T09:59:27.323Z,100657.47
2022-10-23T10:00:29.129Z,100644.22
2022-10-23T10:01:36.246Z,100652.06
2022-10-23T10:03:08.311Z,100653.63
2022-10-23T10:04:19.083Z,100654.22
2022-10-23T10:05:27.555Z,100657.59
2022-10-23T10:06:32.490Z,100646.09
2022-10-23T10:07:37.042Z,100659.91
2022-10-23T10:08:47.812Z,100646.94
2022-10-23T10:09:53.095Z,100647.53
2022-10-23T10:10:58.798Z,100651.66
2022-10-23T10:12:09.044Z,100646.84
2022-10-23T10:13:20.113Z,100650.53
2022-10-23T10:14:27.596Z,100642.00
2022-10-23T10:15:34.917Z,100645.69
2022-10-23T10:16:58.911Z,100643.97
2022-10-23T10:18:01.268Z,100643.00
2022-10-23T10:19:08.802Z,100648.84
2022-10-23T10:20:33.938Z,100648.56
2022-10-23T10:21:50.713Z,100642.00
2022-10-23T10:22:56.929Z,100645.41
2022-10-23T10:24:19.810Z,100649.13
2022-10-23T10:25:34.210Z,100645.69
2022-10-23T10:26:52.286Z,100646.28
2022-10-23T10:28:04.118Z,100648.56
2022-10-23T10:29:17.158Z,100654.50
2022-10-23T10:30:22.531Z,100648.56
2022-10-23T10:31:38.919Z,100659.38
2022-10-23T10:32:44.462Z,100655.66
2022-10-23T10:34:05.752Z,100663.22
2022-10-23T10:35:12.946Z,100650.25
2022-10-23T10:36:29.634Z,100654.53
2022-10-23T10:37:34.618Z,100654.66
2022-10-23T10:38:57.810Z,100650.53
2022-10-23T10:40:02.441Z,100654.66
2022-10-23T10:41:27.695Z,100660.22
2022-10-23T10:42:39.375Z,100652.50
2022-10-23T10:43:47.319Z,100643.97
2022-10-23T10:44:50.960Z,100659.63
2022-10-23T10:46:00.594Z,100647.09
2022-10-23T10:47:21.383Z,100642.84
2022-10-23T10:48:39.813Z,100646.53
2022-10-23T10:49:58.985Z,100655.97
2022-10-23T10:51:13.821Z,100647.09
2022-10-23T10:52:18.640Z,100643.09
2022-10-23T10:53:23.107Z,100638.56
2022-10-23T10:54:33.671Z,100621.88
2022-10-23T10:55:39.399Z,100630.25
2022-10-23T10:56:42.546Z,100637.94
2022-10-23T10:57:54.952Z,100641.91
2022-10-23T10:59:02.666Z,100638.22
2022-10-23T11:00:06.640Z,100637.09
2022-10-23T11:01:17.451Z,100638.47
2022-10-23T11:02:26.597Z,100631.81
2022-10-23T11:03:37.594Z,100645.31
2022-10-23T11:04:49.256Z,100634.09
2022-10-23T11:05:51.253Z,100631.69
2022-10-23T11:06:56.047Z,100627.94
2022-10-23T11:08:28.451Z,100633.09
2022-10-23T11:09:30.341Z,100638.22
2022-10-23T11:10:36.054Z,100623.59
2022-10-23T11:11:40.724Z,100625.44
2022-10-23T11:12:45.599Z,100626.84
2022-10-23T11:13:50.110Z,100624.59
2022-10-23T11:14:52.085Z,100621.47
2022-10-23T11:15:59.518Z,100623.00
2022-10-23T11:17:24.373Z,100628.00
2022-10-23T11:18:27.140Z,100617.78
2022-10-23T11:19:43.700Z,100623.75
2022-10-23T11:20:51.059Z,100622.88
2022-10-23T11:22:02.617Z,100624.31
2022-10-23T11:23:24.599Z,100620.34
2022-10-23T11:24:29.082Z,100625.16
2022-10-23T11:25:40.224Z,100628.59
2022-10-23T11:26:47.344Z,100628.19
2022-10-23T11:27:58.122Z,100622.38
2022-10-23T11:29:19.093Z,100626.03
2022-10-23T11:30:28.126Z,100626.94
2022-10-23T11:31:39.849Z,100627.72
2022-10-23T11:32:49.272Z,100620.28
2022-10-23T11:34:00.419Z,100633.50
2022-10-23T11:35:04.958Z,100628.50
2022-10-23T11:36:20.367Z,100628.63
2022-10-23T11:37:26.898Z,100630.28
2022-10-23T11:38:35.923Z,100636.47
2022-10-23T11:39:42.129Z,100638.19
2022-10-23T11:40:54.167Z,100629.78
2022-10-23T11:42:02.894Z,100630.94
2022-10-23T11:43:05.348Z,100634.63
2022-10-23T11:44:25.906Z,100643.00
2022-10-23T11:45:32.318Z,100637.41
2022-10-23T11:46:38.316Z,100620.28
2022-10-23T11:47:40.818Z,100639.44
2022-10-23T11:48:47.717Z,100637.41
2022-10-23T11:49:49.666Z,100631.44
2022-10-23T11:50:55.691Z,100630.53
2022-10-23T11:52:05.146Z,100630.13
2022-10-23T11:53:15.097Z,100626.75
2022-10-23T11:54:24.979Z,100614.97
2022-10-23T11:55:30.882Z,100621.88
2022-10-23T11:56:34.356Z,100624.47
2022-10-23T11:57:38.852Z,100618.81
2022-10-23T11:58:41.457Z,100605.94
2022-10-23T11:59:45.967Z,100617.56
2022-10-23T12:01:00.235Z,100603.13
2022-10-23T12:02:05.742Z,100622.38
2022-10-23T12:03:15.042Z,100609.44
2022-10-23T12:04:21.024Z,100617.41
2022-10-23T12:05:22.870Z,100615.19
2022-10-23T12:06:31.327Z,100611.78
2022-10-23T12:07:33.946Z,100590.44
2022-10-23T12:08:39.053Z,100607.41
2022-10-23T12:09:43.626Z,100603.00
2022-10-23T12:10:50.674Z,100603.59
2022-10-23T12:12:24.629Z,100601.28
2022-10-23T12:13:29.072Z,100598.75
2022-10-23T12:14:38.557Z,100577.09
2022-10-23T12:15:42.323Z,100598.16
2022-10-23T12:16:46.894Z,100594.16
2022-10-23T12:17:49.592Z,100605.38
2022-10-23T12:19:01.852Z,100589.13
2022-10-23T12:20:11.530Z,100605.50
2022-10-23T12:21:18.766Z,100599.22
2022-10-23T12:22:22.396Z,100606.34
2022-10-23T12:23:27.773Z,100598.94
2022-10-23T12:24:34.937Z,100606.06
2022-10-23T12:25:48.479Z,100605.22
2022-10-23T12:27:17.753Z,100602.69
2022-10-23T12:28:29.813Z,100605.84
2022-10-23T12:29:46.949Z,100601.00
2022-10-23T12:30:51.663Z,100603.44
2022-10-23T12:32:05.412Z,100613.53
2022-10-23T12:33:28.663Z,100603.41
2022-10-23T12:34:36.544Z,100607.53
2022-10-23T12:35:48.942Z,100609.09
2022-10-23T12:36:56.214Z,100608.91
2022-10-23T12:38:04.559Z,100597.81
2022-10-23T12:39:27.814Z,100598.53
2022-10-23T12:40:30.422Z,100607.50
2022-10-23T12:41:35.406Z,100605.75
2022-10-23T12:42:37.323Z,100606.75
2022-10-23T12:43:42.260Z,100604.88
2022-10-23T12:44:44.127Z,100599.50
2022-10-23T12:45:50.553Z,100602.34
2022-10-23T12:46:59.806Z,100605.47
2022-10-23T12:48:01.732Z,100602.53
2022-10-23T12:49:07.032Z,100603.59
2022-10-23T12:50:37.703Z,100598.31
2022-10-23T12:51:40.084Z,100591.50
2022-10-23T12:52:44.894Z,100581.75
2022-10-23T12:53:48.916Z,100587.56
2022-10-23T12:54:53.639Z,100593.56
2022-10-23T12:57:28.437Z,100595.84
2022-10-23T12:58:34.856Z,100595.59
2022-10-23T12:59:42.876Z,100597.00
2022-10-23T13:00:50.607Z,100599.56
2022-10-23T13:01:55.581Z,100607.78
2022-10-23T13:02:58.334Z,100599.69
2022-10-23T13:04:26.227Z,100596.44